Latest Coastal Weather Observations for Devonport Airport

IDT60701

Issued at 6:32 am EST Saturday 23 May 2015 (issued every 10 minutes, with the page automatically refreshed every 10 minutes)

About coastal observations | Map of coastal stations | Coastal observations for TAS | Marine services | Other Formats
Station Details ID: 091126 Name: DEVONPORT AIRPORT Lat: -41.17 Lon: 146.43 Height: 8.0 m
Data from the previous 72 hours. | See also: Recent months at Devonport Airport
Date/Time
EST
Temp

°C
Wind Pressure Rain
since 9am
mm
Weather Cloud Vis
km
Sea
Height
m
Swell
Dir
 
Speed
knots
Gust
knots
hPa Trend Height
m
Period
s
Dir
23/06:30am 1.6 SSE 8 9 1028.6 - 0.0 - - 10 - - - -
23/06:00am 2.2 SSW 5 7 1028.4 - 0.0 - - 10 - - - -
23/05:30am 2.0 S 7 9 1028.3 - 0.0 - - 10 - - - -
23/05:00am 1.7 SSW 4 5 1028.3 - 0.0 - - 10 - - - -
23/04:30am 2.3 SSW 6 7 1028.2 - 0.0 - - 10 - - - -
23/04:00am 1.9 S 3 5 1028.1 - 0.0 - - 10 - - - -
23/03:30am 2.4 S 7 9 1028.1 - 0.0 - - 10 - - - -
23/03:00am 1.8 S 7 8 1028.2 - 0.0 - - 10 - - - -
23/02:30am 2.4 S 7 9 1028.2 - 0.0 - - 10 - - - -
23/02:00am 2.5 S 7 9 1028.1 - 0.0 - - 10 - - - -
23/01:30am 2.8 S 8 10 1028.1 - 0.0 - - 10 - - - -
23/01:00am 2.7 S 7 10 1028.3 - 0.0 - - 10 - - - -
23/12:30am 2.6 S 6 8 1028.3 - 0.0 - - 10 - - - -
23/12:00am 3.1 S 6 8 1028.3 - 0.0 - - 10 - - - -
 
Date/Time
EST
Temp

°C
Wind Pressure Rain
since 9am
mm
Weather Cloud Vis
km
Sea
Height
m
Swell
Dir
 
Speed
knots
Gust
knots
hPa Trend Height
m
Period
s
Dir
22/11:30pm 3.2 SSE 6 8 1028.4 - 0.0 - - 10 - - - -
22/11:00pm 3.2 S 7 9 1028.3 - 0.0 - - 10 - - - -
22/10:30pm 3.5 S 6 8 1028.3 - 0.0 - - 10 - - - -
22/10:00pm 4.3 S 4 7 1028.4 - 0.0 - - 10 - - - -
22/09:30pm 4.9 SSE 5 7 1028.4 - 0.0 - - 10 - - - -
22/09:00pm 3.0 SSE 4 7 1028.4 - 0.0 - Mostly clear 10 - - - -
22/08:30pm 4.5 SSW 5 7 1028.4 - 0.0 - - 10 - - - -
22/08:00pm 4.9 S 7 7 1028.1 - 0.0 - - 10 - - - -
22/07:30pm 4.5 S 6 7 1028.0 - 0.0 - - 10 - - - -
22/07:00pm 4.2 WSW 5 6 1027.8 - 0.0 - - 10 - - - -
22/06:30pm 4.9 S 2 5 1027.8 - 0.0 - - 10 - - - -
22/06:00pm 6.1 CALM 0 0 1027.7 - 0.0 - - 10 - - - -
22/05:30pm 8.1 CALM 0 2 1027.6 - 0.0 - - 10 - - - -
22/05:00pm 9.8 NNW 4 5 1027.5 - 0.0 - - 10 - - - -
22/04:30pm 10.4 NNW 5 6 1027.4 - 0.0 - - 10 - - - -
22/04:00pm 11.2 NW 5 7 1027.5 - 0.0 - - 10 - - - -
22/03:30pm 11.7 NW 6 7 1027.4 - 0.0 - - 10 - - - -
22/03:00pm 11.8 NW 6 7 1027.3 - 0.0 - - 10 - - - -
22/02:30pm 11.7 NNW 7 9 1027.2 - 0.0 - - 10 - - - -
22/02:00pm 11.5 NNW 8 11 1027.4 - 0.0 - - 10 - - - -
22/01:30pm 12.2 SE 1 4 1027.6 - 0.0 - - 10 - - - -
22/01:00pm 11.8 SSE 2 5 1027.9 - 0.0 - - 10 - - - -
22/12:30pm 11.5 S 4 7 1028.3 - 0.0 - - 10 - - - -
22/12:00pm 10.9 S 5 8 1028.4 - 0.0 - - 10 - - - -
22/11:30am 10.7 SE 5 7 1029.0 - 0.0 - - 10 - - - -
22/11:00am 10.2 S 6 8 1029.3 - 0.0 - - 10 - - - -
22/10:30am 10.1 S 8 11 1029.5 - 0.0 - - 10 - - - -
22/10:00am 8.8 S 7 9 1029.2 - 0.0 - - 10 - - - -
22/09:30am 7.6 S 9 11 1029.4 - 0.0 - - 10 - - - -
22/09:00am 6.4 S 7 11 1029.6 - 0.0 - - 10 - - - -
22/08:30am 5.5 SSW 6 7 1029.3 - 0.0 - - 10 - - - -
22/08:00am 4.5 S 6 8 1029.1 - 0.0 - Partly cloudy 10 - - - -
22/07:30am 4.8 S 7 8 1029.4 - 0.0 - Cloudy 10 - - - -
22/07:00am 4.3 S 6 7 1029.1 - 0.0 - Cloudy 10 - - - -
22/06:30am 4.2 S 7 7 1028.8 - 0.0 - - 10 - - - -
22/06:00am 4.6 S 6 7 1028.6 - 0.0 - Partly cloudy 10 - - - -
22/05:30am 4.5 S 6 7 1028.4 - 0.0 - Partly cloudy 10 - - - -
22/05:00am 4.9 S 5 6 1028.3 - 0.0 - Partly cloudy 10 - - - -
22/04:30am 4.8 SSE 6 6 1028.3 - 0.0 - Partly cloudy 10 - - - -
22/04:00am 5.9 SSE 4 5 1028.2 - 0.0 - - 10 - - - -
22/03:30am 6.6 SSE 5 6 1028.4 - 0.0 - Partly cloudy 10 - - - -
22/03:02am 7.3 SSW 4 5 1028.5 - 0.0 - Cloudy 10 - - - -
22/03:00am 7.3 SSW 4 5 1028.6 - 0.0 - Cloudy 10 - - - -
22/02:45am 6.6 WSW 5 6 1028.6 - 0.0 - Cloudy 6 - - - -
22/02:30am 6.8 SSE 3 4 1028.6 - 0.0 - Cloudy 10 - - - -
22/02:00am 7.2 CALM 0 0 1028.6 - 0.0 - Cloudy 10 - - - -
22/01:30am 7.5 S 3 4 1028.5 - 0.0 - Cloudy 10 - - - -
22/01:00am 8.0 S 5 6 1028.5 - 0.0 - Cloudy 10 - - - -
22/12:30am 8.1 S 8 10 1028.5 - 0.0 - Cloudy 10 - - - -
22/12:00am 8.2 S 7 9 1028.7 - 0.0 - Mostly cloudy 10 - - - -
 
Date/Time
EST
Temp

°C
Wind Pressure Rain
since 9am
mm
Weather Cloud Vis
km
Sea
Height
m
Swell
Dir
 
Speed
knots
Gust
knots
hPa Trend Height
m
Period
s
Dir
21/11:30pm 7.7 SSE 6 8 1028.6 - 0.0 - Cloudy 10 - - - -
21/11:00pm 7.9 S 7 8 1028.6 - 0.0 - Cloudy 10 - - - -
21/10:30pm 8.4 S 7 8 1028.6 - 0.0 - Cloudy 10 - - - -
21/10:00pm 8.5 S 8 10 1028.6 - 0.0 - Cloudy 10 - - - -
21/09:30pm 8.6 S 9 11 1028.4 - 0.0 - Cloudy 10 - - - -
21/09:00pm 7.8 SSE 5 7 1028.3 - 0.0 - Mostly cloudy 10 - - - -
21/08:30pm 7.7 SSE 5 6 1028.1 - 0.0 - Cloudy 10 - - - -
21/08:00pm 9.3 S 5 7 1028.0 - 0.0 - Partly cloudy 10 - - - -
21/07:30pm 9.7 S 5 6 1027.7 - 0.0 - Cloudy 10 - - - -
21/07:00pm 10.1 SSE 4 5 1027.5 - 0.0 - Cloudy 10 - - - -
21/06:30pm 10.6 SSE 5 7 1027.3 - 0.0 - Cloudy 10 - - - -
21/06:00pm 9.8 SE 8 9 1027.0 - 0.0 - Mostly cloudy 10 - - - -
21/05:30pm 9.4 S 5 6 1026.5 - 0.0 - Cloudy 10 - - - -
21/05:00pm 10.3 SE 5 6 1026.1 - 0.0 - Partly cloudy 10 - - - -
21/04:30pm 11.3 ESE 6 7 1025.7 - 0.0 - - 10 - - - -
21/04:00pm 12.5 ESE 8 11 1025.5 - 0.0 - - 10 - - - -
21/03:30pm 13.1 ESE 8 10 1025.1 - 0.0 - - 10 - - - -
21/03:00pm 13.4 ESE 7 11 1024.9 - 0.0 - - 10 - - - -
21/02:30pm 13.4 SE 8 11 1024.7 - 0.0 - - 10 - - - -
21/02:00pm 13.4 ESE 9 12 1024.4 - 0.0 - - 10 - - - -
21/01:30pm 13.2 SSE 10 13 1024.3 - 0.0 - - 10 - - - -
21/01:00pm 13.4 SSE 10 14 1024.4 - 0.0 - - 10 - - - -
21/12:30pm 13.0 SE 10 15 1024.5 - 0.0 - - 10 - - - -
21/12:00pm 12.5 SSE 13 17 1024.6 - 0.0 - - 10 - - - -
21/11:30am 12.2 SSE 13 18 1024.9 - 0.0 - - 10 - - - -
21/11:00am 11.9 SSE 14 18 1024.8 - 0.0 - - 10 - - - -
21/10:30am 11.2 SSE 14 21 1024.6 - 0.0 - - 10 - - - -
21/10:00am 9.9 S 11 14 1024.3 - 0.0 - - 10 - - - -
21/09:30am 8.2 S 11 14 1024.1 - 0.0 - - 10 - - - -
21/09:00am 7.5 S 11 15 1023.7 - 0.0 - - 10 - - - -
21/08:30am 6.9 SSE 15 17 1023.2 - 0.0 - - 10 - - - -
21/08:00am 5.7 SSE 14 16 1022.6 - 0.0 - - 10 - - - -
21/07:30am 5.0 S 13 16 1022.3 - 0.0 - - 10 - - - -
21/07:00am 5.9 SSE 17 19 1021.9 - 0.0 - - 10 - - - -
21/06:30am 6.6 SSE 11 15 1021.6 - 0.0 - - 10 - - - -
21/06:00am 6.8 SSE 14 17 1021.0 - 0.0 - - 10 - - - -
21/05:30am 6.8 SSE 13 16 1020.4 - 0.0 - - 10 - - - -
21/05:00am 6.6 SSE 13 17 1019.9 - 0.0 - - 10 - - - -
21/04:30am 7.3 SSE 14 17 1019.4 - 0.0 - - 10 - - - -
21/04:00am 7.6 SSE 12 15 1019.1 - 0.0 - - 10 - - - -
21/03:30am 7.2 S 10 13 1018.9 - 0.0 - - 10 - - - -
21/03:00am 7.8 S 8 10 1018.7 - 0.0 - Partly cloudy 10 - - - -
21/02:30am 8.7 S 9 11 1018.7 - 0.0 - Cloudy 10 - - - -
21/02:00am 8.4 SSW 6 8 1018.4 - 0.0 - Partly cloudy 10 - - - -
21/01:30am 6.8 SSW 4 6 1018.0 - 0.0 - Partly cloudy 10 - - - -
21/01:00am 7.3 SSW 1 5 1017.9 - 0.0 - - 10 - - - -
21/12:30am 8.0 S 7 10 1017.8 - 0.0 - Partly cloudy 10 - - - -
21/12:00am 7.9 SSW 4 5 1017.4 - 0.0 - Mostly clear 10 - - - -
 
Date/Time
EST
Temp

°C
Wind Pressure Rain
since 9am
mm
Weather Cloud Vis
km
Sea
Height
m
Swell
Dir
 
Speed
knots
Gust
knots
hPa Trend Height
m
Period
s
Dir
20/11:30pm 9.3 SSW 5 7 1017.1 - 0.0 - Partly cloudy 10 - - - -
20/11:00pm 9.1 SSW 5 6 1016.8 - 0.0 - Partly cloudy 10 - - - -
20/10:30pm 9.7 SSE 5 6 1016.6 - 0.0 - Cloudy 10 - - - -
20/10:00pm 10.6 SSE 7 8 1016.4 - 0.0 - Cloudy 10 - - - -
20/09:30pm 10.9 SSE 8 10 1016.2 - 0.0 - Cloudy 10 - - - -
20/09:00pm 9.4 S 5 7 1015.7 - 0.0 - Partly cloudy 10 - - - -
20/08:30pm 9.8 WSW 3 5 1015.1 - 0.0 - Partly cloudy 10 - - - -
20/08:00pm 9.8 S 6 9 1014.6 - 0.0 - Partly cloudy 10 - - - -
20/07:30pm 10.4 SSE 8 9 1014.2 - 0.0 - Partly cloudy 10 - - - -
20/07:00pm 10.7 SSE 8 9 1013.9 - 0.0 - Partly cloudy 10 - - - -
20/06:30pm 11.3 SSE 6 7 1013.5 - 0.0 - Partly cloudy 10 - - - -
20/06:00pm 11.9 SSE 7 8 1013.2 - 0.0 - Cloudy 10 - - - -
20/05:30pm 11.7 S 6 7 1012.9 - 0.0 - Partly cloudy 10 - - - -
20/05:00pm 12.1 SSE 7 8 1012.2 - 0.0 - Cloudy 10 - - - -
20/04:30pm 12.7 S 5 6 1011.7 - 0.0 - Partly cloudy 10 - - - -
20/04:00pm 12.9 S 5 6 1011.4 - 0.0 - Cloudy 10 - - - -
20/03:30pm 13.2 S 5 7 1010.9 - 0.0 - Cloudy 10 - - - -
20/03:00pm 13.5 SSE 6 9 1010.5 - 0.0 - Cloudy 10 - - - -
20/02:30pm 13.3 S 8 11 1010.2 - 0.0 - Cloudy 10 - - - -
20/02:00pm 13.1 SSE 9 13 1010.0 - 0.0 - Partly cloudy 10 - - - -
20/01:30pm 12.4 S 9 11 1009.8 - 0.0 - Partly cloudy 10 - - - -
20/01:00pm 11.8 S 10 13 1009.9 - 0.0 - Cloudy 10 - - - -
20/12:30pm 11.3 S 9 12 1010.0 - 0.0 - Cloudy 10 - - - -
20/12:00pm 11.2 S 9 11 1010.1 - 0.0 Showers Cloudy 10 - - - -
20/11:30am 11.0 S 9 11 1010.2 - 0.0 - Partly cloudy 10 - - - -
20/11:00am 10.5 SSE 9 12 1010.4 - 0.0 - Partly cloudy 10 - - - -
20/10:30am 9.8 SSE 9 11 1010.4 - 0.0 - Partly cloudy 10 - - - -
20/10:00am 9.6 SSE 8 10 1010.1 - 0.0 - Partly cloudy 10 - - - -
20/09:30am 9.3 S 8 11 1009.8 - 0.0 - Cloudy 10 - - - -
20/09:00am 9.1 S 7 10 1009.6 - 10.4 - Mostly cloudy 10 - - - -
20/08:30am 8.8 SSE 4 7 1009.5 - 10.4 - Partly cloudy 10 - - - -
20/08:00am 8.5 S 7 9 1009.1 - 10.4 - Partly cloudy 10 - - - -
20/07:50am 8.4 SSE 4 9 1009.1 - 10.4 - Partly cloudy 10 - - - -
20/07:39am 8.4 SSE 8 12 1008.7 - 10.4 - Partly cloudy 10 - - - -
20/07:30am 8.3 S 10 13 1008.4 - 10.4 - Cloudy 7 - - - -
20/07:17am 8.4 S 9 11 1008.4 - 10.4 - Cloudy 1 - - - -
20/07:12am 8.5 S 9 11 1008.3 - 10.4 - Cloudy 0.6 - - - -
20/07:11am 8.6 S 9 11 1008.2 - 10.4 - Cloudy 0.5 - - - -
20/07:00am 8.7 S 9 13 1008.1 - 10.4 - Cloudy 0.2 - - - -
20/06:58am 8.7 SSE 9 13 1008.1 - 10.4 - Cloudy 0.3 - - - -
20/06:48am 8.1 S 7 9 1008.2 - 10.4 - Cloudy 0.9 - - - -

Other Formats:

Comma delimited format used in spreadsheet applications
http://www.bom.gov.au/fwo/IDT60701/IDT60701.95960.axf

JavaScript Object Notation format (JSON) in row-major order
http://www.bom.gov.au/fwo/IDT60701/IDT60701.95960.json